createdAt,value
2023-04-09T00:01:29.709Z,100.00
2023-04-09T00:03:56.324Z,100.00
2023-04-09T00:06:22.831Z,100.00
2023-04-09T00:08:49.372Z,100.00
2023-04-09T00:11:15.892Z,100.00
2023-04-09T00:13:42.246Z,100.00
2023-04-09T00:16:09.236Z,100.00
2023-04-09T00:18:36.172Z,100.00
2023-04-09T00:21:02.575Z,100.00
2023-04-09T00:23:29.078Z,100.00
2023-04-09T00:25:55.570Z,100.00
2023-04-09T00:28:22.002Z,100.00
2023-04-09T00:30:48.392Z,100.00
2023-04-09T00:33:14.852Z,100.00
2023-04-09T00:35:41.424Z,100.00
2023-04-09T00:38:07.879Z,100.00
2023-04-09T00:40:34.297Z,100.00
2023-04-09T00:43:01.131Z,100.00
2023-04-09T00:45:27.645Z,100.00
2023-04-09T00:47:54.380Z,100.00
2023-04-09T00:50:21.461Z,100.00
2023-04-09T00:52:47.945Z,100.00
2023-04-09T00:55:15.365Z,100.00
2023-04-09T00:57:41.751Z,100.00
2023-04-09T01:00:09.672Z,100.00
2023-04-09T01:02:36.628Z,100.00
2023-04-09T01:05:03.578Z,100.00
2023-04-09T01:08:08.856Z,100.00
2023-04-09T01:10:44.335Z,100.00
2023-04-09T01:13:18.525Z,100.00
2023-04-09T01:16:00.478Z,100.00
2023-04-09T01:18:26.992Z,100.00
2023-04-09T01:21:04.201Z,100.00
2023-04-09T01:24:12.319Z,100.00
2023-04-09T01:26:55.485Z,100.00
2023-04-09T01:29:23.959Z,100.00
2023-04-09T01:31:52.167Z,100.00
2023-04-09T01:34:20.558Z,100.00
2023-04-09T01:36:53.244Z,100.00
2023-04-09T01:39:20.260Z,100.00
2023-04-09T01:41:48.278Z,100.00
2023-04-09T01:44:15.665Z,100.00
2023-04-09T01:46:42.535Z,100.00
2023-04-09T01:49:10.365Z,100.00
2023-04-09T01:51:37.710Z,100.00
2023-04-09T01:54:04.793Z,100.00
2023-04-09T01:56:45.054Z,100.00
2023-04-09T01:59:11.843Z,100.00
2023-04-09T02:01:43.744Z,100.00
2023-04-09T02:04:17.647Z,100.00
2023-04-09T02:07:08.980Z,100.00
2023-04-09T02:09:37.418Z,100.00
2023-04-09T02:12:06.169Z,100.00
2023-04-09T02:14:33.276Z,100.00
2023-04-09T02:17:00.976Z,100.00
2023-04-09T02:19:47.205Z,100.00
2023-04-09T02:22:15.319Z,100.00
2023-04-09T02:24:41.874Z,100.00
2023-04-09T02:27:09.024Z,100.00
2023-04-09T02:29:35.560Z,100.00
2023-04-09T02:32:02.006Z,100.00
2023-04-09T02:34:28.547Z,100.00
2023-04-09T02:36:55.063Z,100.00
2023-04-09T02:39:21.480Z,100.00
2023-04-09T02:41:47.898Z,100.00
2023-04-09T02:44:14.363Z,100.00
2023-04-09T02:46:41.722Z,100.00
2023-04-09T02:49:08.221Z,100.00
2023-04-09T02:51:37.704Z,100.00
2023-04-09T02:54:04.446Z,100.00
2023-04-09T02:56:30.898Z,100.00
2023-04-09T02:58:57.597Z,100.00
2023-04-09T03:01:23.986Z,100.00
2023-04-09T03:03:51.119Z,100.00
2023-04-09T03:06:18.463Z,100.00
2023-04-09T03:08:45.203Z,100.00
2023-04-09T03:11:11.731Z,100.00
2023-04-09T03:13:38.408Z,100.00
2023-04-09T03:16:05.609Z,100.00
2023-04-09T03:18:31.998Z,100.00
2023-04-09T03:20:58.362Z,100.00
2023-04-09T03:23:24.871Z,100.00
2023-04-09T03:26:04.162Z,100.00
2023-04-09T03:28:31.190Z,100.00
2023-04-09T03:30:57.970Z,100.00
2023-04-09T03:33:25.647Z,100.00
2023-04-09T03:35:52.401Z,100.00
2023-04-09T03:38:19.582Z,100.00
2023-04-09T03:40:46.041Z,100.00
2023-04-09T03:43:12.693Z,100.00
2023-04-09T03:45:39.062Z,100.00
2023-04-09T03:48:05.623Z,100.00
2023-04-09T03:50:32.241Z,100.00
2023-04-09T03:52:58.644Z,100.00
2023-04-09T03:55:25.224Z,100.00
2023-04-09T03:57:51.625Z,100.00
2023-04-09T04:00:17.963Z,100.00
2023-04-09T04:02:44.443Z,100.00
2023-04-09T04:05:11.677Z,100.00
2023-04-09T04:07:38.177Z,100.00
2023-04-09T04:10:06.487Z,100.00
2023-04-09T04:12:32.900Z,100.00
2023-04-09T04:14:59.336Z,100.00
2023-04-09T04:17:25.795Z,100.00
2023-04-09T04:19:52.204Z,100.00
2023-04-09T04:22:18.667Z,100.00
2023-04-09T04:24:45.044Z,100.00
2023-04-09T04:27:11.499Z,100.00
2023-04-09T04:29:37.994Z,100.00
2023-04-09T04:32:04.722Z,100.00
2023-04-09T04:34:31.294Z,100.00
2023-04-09T04:36:57.739Z,100.00
2023-04-09T04:39:24.418Z,100.00
2023-04-09T04:41:51.105Z,100.00
2023-04-09T04:44:17.486Z,100.00
2023-04-09T04:46:43.877Z,100.00
2023-04-09T04:49:10.412Z,99.80
2023-04-09T04:51:37.022Z,99.67
2023-04-09T04:54:03.512Z,99.73
2023-04-09T04:56:29.964Z,99.87
2023-04-09T04:58:56.382Z,100.00
2023-04-09T05:01:22.827Z,100.00
2023-04-09T05:03:49.504Z,100.00
2023-04-09T05:06:15.961Z,100.00
2023-04-09T05:08:42.329Z,100.00
2023-04-09T05:11:11.940Z,100.00
2023-04-09T05:13:38.315Z,99.08
2023-04-09T05:16:04.935Z,98.98
2023-04-09T05:18:31.337Z,99.18
2023-04-09T05:20:57.801Z,98.81
2023-04-09T05:23:24.184Z,98.72
2023-04-09T05:25:50.638Z,98.54
2023-04-09T05:28:17.054Z,98.41
2023-04-09T05:30:47.792Z,98.16
2023-04-09T05:33:14.290Z,97.74
2023-04-09T05:35:40.889Z,98.16
2023-04-09T05:38:07.401Z,98.13
2023-04-09T05:40:35.292Z,97.82
2023-04-09T05:43:01.787Z,97.03
2023-04-09T05:45:31.231Z,96.32
2023-04-09T05:47:57.656Z,96.03
2023-04-09T05:50:24.100Z,95.50
2023-04-09T05:52:50.900Z,95.77
2023-04-09T05:55:17.393Z,95.42
2023-04-09T05:57:45.370Z,95.73
2023-04-09T06:00:12.468Z,95.95
2023-04-09T06:02:38.870Z,96.39
2023-04-09T06:05:05.718Z,96.10
2023-04-09T06:07:32.545Z,95.94
2023-04-09T06:09:58.906Z,95.67
2023-04-09T06:12:25.494Z,94.99
2023-04-09T06:14:51.858Z,94.53
2023-04-09T06:17:18.298Z,94.24
2023-04-09T06:19:44.696Z,94.49
2023-04-09T06:22:11.119Z,93.94
2023-04-09T06:24:37.484Z,93.40
2023-04-09T06:27:03.952Z,93.46
2023-04-09T06:29:30.365Z,93.34
2023-04-09T06:31:56.752Z,93.28
2023-04-09T06:34:23.169Z,93.15
2023-04-09T06:36:49.551Z,93.30
2023-04-09T06:39:16.010Z,93.78
2023-04-09T06:41:42.403Z,94.08
2023-04-09T06:44:08.830Z,93.75
2023-04-09T06:46:35.260Z,93.91
2023-04-09T06:49:01.700Z,94.08
2023-04-09T06:51:28.151Z,94.63
2023-04-09T06:53:55.111Z,94.70
2023-04-09T06:56:21.723Z,94.88
2023-04-09T06:58:48.269Z,95.09
2023-04-09T07:01:14.815Z,94.66
2023-04-09T07:03:41.463Z,94.40
2023-04-09T07:06:08.132Z,92.65
2023-04-09T07:08:34.539Z,91.76
2023-04-09T07:11:00.977Z,90.86
2023-04-09T07:15:54.811Z,88.70
2023-04-09T07:18:21.245Z,89.03
2023-04-09T07:20:47.632Z,87.57
2023-04-09T07:23:14.418Z,85.73
2023-04-09T07:25:40.888Z,83.03
2023-04-09T07:28:07.293Z,82.09
2023-04-09T07:30:33.682Z,81.08
2023-04-09T07:33:00.503Z,79.71
2023-04-09T07:35:27.033Z,79.20
2023-04-09T07:37:53.387Z,77.27
2023-04-09T07:40:20.294Z,75.76
2023-04-09T07:42:47.094Z,76.25
2023-04-09T07:45:13.556Z,74.44
2023-04-09T07:47:41.320Z,73.83
2023-04-09T07:50:08.711Z,72.19
2023-04-09T07:52:35.533Z,71.49
2023-04-09T07:55:01.972Z,71.10
2023-04-09T07:57:31.252Z,72.61
2023-04-09T07:59:58.330Z,72.16
2023-04-09T08:02:25.167Z,71.99
2023-04-09T08:04:51.922Z,71.13
2023-04-09T08:07:18.443Z,72.69
2023-04-09T08:09:44.799Z,73.61
2023-04-09T08:12:11.243Z,74.21
2023-04-09T08:14:37.687Z,73.41
2023-04-09T08:17:04.374Z,73.58
2023-04-09T08:19:30.945Z,73.99
2023-04-09T08:21:58.749Z,72.38
2023-04-09T08:24:25.123Z,72.69
2023-04-09T08:26:51.620Z,75.16
2023-04-09T08:29:18.059Z,73.38
2023-04-09T08:31:44.813Z,73.62
2023-04-09T08:34:11.458Z,73.40
2023-04-09T08:36:37.977Z,72.72
2023-04-09T08:39:04.545Z,70.97
2023-04-09T08:41:31.285Z,73.44
2023-04-09T08:43:59.520Z,71.52
2023-04-09T08:46:27.287Z,71.36
2023-04-09T08:48:54.244Z,69.41
2023-04-09T08:51:22.903Z,68.85
2023-04-09T08:53:56.406Z,67.59
2023-04-09T08:56:23.734Z,68.36
2023-04-09T08:58:50.271Z,71.17
2023-04-09T09:01:23.774Z,71.90
2023-04-09T09:04:01.006Z,71.27
2023-04-09T09:06:32.921Z,70.44
2023-04-09T09:09:18.902Z,69.81
2023-04-09T09:11:48.228Z,69.77
2023-04-09T09:14:17.157Z,68.11
2023-04-09T09:17:03.786Z,67.28
2023-04-09T09:19:33.564Z,67.91
2023-04-09T09:22:08.029Z,66.93
2023-04-09T09:24:34.904Z,66.67
2023-04-09T09:27:02.532Z,66.60
2023-04-09T09:29:31.484Z,67.36
2023-04-09T09:31:57.882Z,69.20
2023-04-09T09:34:25.249Z,69.58
2023-04-09T09:36:51.908Z,69.38
2023-04-09T09:39:18.596Z,66.68
2023-04-09T09:41:46.503Z,67.71
2023-04-09T09:44:31.257Z,65.42
2023-04-09T09:46:59.144Z,64.97
2023-04-09T09:49:25.901Z,66.64
2023-04-09T09:51:56.733Z,65.95
2023-04-09T09:54:26.250Z,64.62
2023-04-09T09:56:55.740Z,66.31
2023-04-09T09:59:31.984Z,66.41
2023-04-09T10:02:04.337Z,65.81
2023-04-09T10:04:35.793Z,63.28
2023-04-09T10:07:05.797Z,64.64
2023-04-09T10:09:36.645Z,65.04
2023-04-09T10:12:06.859Z,64.79
2023-04-09T10:14:35.998Z,63.30
2023-04-09T10:17:03.920Z,63.56
2023-04-09T10:19:31.843Z,64.52
2023-04-09T10:22:07.535Z,62.72
2023-04-09T10:24:35.606Z,63.36
2023-04-09T10:27:17.016Z,63.71
2023-04-09T10:29:45.779Z,62.84
2023-04-09T10:32:13.054Z,63.96
2023-04-09T10:34:41.493Z,65.16
2023-04-09T10:37:23.289Z,62.83
2023-04-09T10:39:51.512Z,62.32
2023-04-09T10:42:30.295Z,63.34
2023-04-09T10:45:14.897Z,61.67
2023-04-09T10:47:43.704Z,63.04
2023-04-09T10:50:20.628Z,60.39
2023-04-09T10:52:47.671Z,59.74
2023-04-09T10:55:38.261Z,61.04
2023-04-09T10:58:06.124Z,61.80
2023-04-09T11:00:36.745Z,62.18
2023-04-09T11:03:04.243Z,61.00
2023-04-09T11:05:38.055Z,62.94
2023-04-09T11:08:14.424Z,62.75
2023-04-09T11:10:44.552Z,60.55
2023-04-09T11:13:13.229Z,57.52
2023-04-09T11:15:41.588Z,60.45
2023-04-09T11:18:09.871Z,56.68
2023-04-09T11:20:36.963Z,54.93
2023-04-09T11:23:03.918Z,56.45
2023-04-09T11:25:32.142Z,56.97
2023-04-09T11:27:59.002Z,55.93
2023-04-09T11:30:26.197Z,54.94
2023-04-09T11:32:53.038Z,56.71
2023-04-09T11:35:21.462Z,54.10
2023-04-09T11:37:49.097Z,54.73
2023-04-09T11:40:21.109Z,54.29
2023-04-09T11:42:50.754Z,54.46
2023-04-09T11:45:18.297Z,54.01
2023-04-09T11:47:45.631Z,55.47
2023-04-09T11:50:13.808Z,55.63
2023-04-09T11:52:41.423Z,56.34
2023-04-09T11:55:11.063Z,57.30
2023-04-09T11:57:41.014Z,54.74
2023-04-09T12:00:13.773Z,55.13
2023-04-09T12:02:46.510Z,52.26
2023-04-09T12:05:24.724Z,51.52
2023-04-09T12:07:56.290Z,53.90
2023-04-09T12:10:27.489Z,53.41
2023-04-09T12:12:53.852Z,52.14
2023-04-09T12:15:30.934Z,51.45
2023-04-09T12:17:58.295Z,52.29
2023-04-09T12:20:29.027Z,53.19
2023-04-09T12:22:56.063Z,54.67
2023-04-09T12:25:22.509Z,53.27
2023-04-09T12:27:49.054Z,51.86
2023-04-09T12:30:15.645Z,50.70
2023-04-09T12:32:44.640Z,51.77
2023-04-09T12:35:11.402Z,49.81
2023-04-09T12:37:37.781Z,53.24
2023-04-09T12:40:04.561Z,52.81
2023-04-09T12:42:31.012Z,52.46
2023-04-09T12:44:57.665Z,48.88
2023-04-09T12:47:24.094Z,53.02
2023-04-09T12:49:50.596Z,52.44
2023-04-09T12:52:18.537Z,53.87
2023-04-09T12:54:45.134Z,56.02
2023-04-09T12:57:11.578Z,53.46
2023-04-09T12:59:37.940Z,52.95
2023-04-09T13:02:04.510Z,52.51
2023-04-09T13:04:31.393Z,53.96
2023-04-09T13:06:57.957Z,53.34
2023-04-09T13:09:25.269Z,52.36
2023-04-09T13:11:52.067Z,52.59
2023-04-09T13:14:19.822Z,51.76
2023-04-09T13:16:46.277Z,48.83
2023-04-09T13:19:12.735Z,49.14
2023-04-09T13:21:39.323Z,50.62
2023-04-09T13:24:06.080Z,48.69
2023-04-09T13:26:32.473Z,50.11
2023-04-09T13:28:59.542Z,49.22
2023-04-09T13:31:26.185Z,49.54
2023-04-09T13:33:52.632Z,48.04
2023-04-09T13:36:19.003Z,47.03
2023-04-09T13:38:45.453Z,51.13
2023-04-09T13:41:11.927Z,51.00
2023-04-09T13:43:38.281Z,49.09
2023-04-09T13:46:04.879Z,50.12
2023-04-09T13:48:31.266Z,48.12
2023-04-09T13:50:57.837Z,47.98
2023-04-09T13:53:25.133Z,48.59
2023-04-09T13:55:51.531Z,46.89
2023-04-09T13:58:18.152Z,46.08
2023-04-09T14:00:44.633Z,48.93
2023-04-09T14:03:11.295Z,48.45
2023-04-09T14:05:37.768Z,47.59
2023-04-09T14:08:04.222Z,48.35
2023-04-09T14:10:30.946Z,47.94
2023-04-09T14:12:58.154Z,49.02
2023-04-09T14:15:24.786Z,47.02
2023-04-09T14:17:53.559Z,48.56
2023-04-09T14:20:21.110Z,46.01
2023-04-09T14:22:49.438Z,45.29
2023-04-09T14:25:16.321Z,45.53
2023-04-09T14:27:42.821Z,44.95
2023-04-09T14:30:10.241Z,47.63
2023-04-09T14:32:36.832Z,47.17
2023-04-09T14:35:03.319Z,45.82
2023-04-09T14:37:29.690Z,46.31
2023-04-09T14:39:57.298Z,46.64
2023-04-09T14:42:23.668Z,46.83
2023-04-09T14:44:50.069Z,47.58
2023-04-09T14:47:16.715Z,48.89
2023-04-09T14:49:43.325Z,48.05
2023-04-09T14:52:09.717Z,47.44
2023-04-09T14:54:37.783Z,47.68
2023-04-09T14:57:05.619Z,47.15
2023-04-09T14:59:31.992Z,46.41
2023-04-09T15:01:58.839Z,46.03
2023-04-09T15:04:25.452Z,46.08
2023-04-09T15:06:52.451Z,45.90
2023-04-09T15:09:18.865Z,47.00
2023-04-09T15:11:45.314Z,47.86
2023-04-09T15:14:11.701Z,48.29
2023-04-09T15:16:38.240Z,46.63
2023-04-09T15:19:04.935Z,48.73
2023-04-09T15:21:31.651Z,50.14
2023-04-09T15:23:59.067Z,46.68
2023-04-09T15:26:27.107Z,47.27
2023-04-09T15:29:06.436Z,48.92
2023-04-09T15:31:33.322Z,47.63
2023-04-09T15:34:00.488Z,47.17
2023-04-09T15:36:29.080Z,47.94
2023-04-09T15:38:55.856Z,48.75
2023-04-09T15:41:23.914Z,48.50
2023-04-09T15:43:51.681Z,48.58
2023-04-09T15:46:18.523Z,46.28
2023-04-09T15:48:45.359Z,46.22
2023-04-09T15:51:11.835Z,47.24
2023-04-09T15:53:38.260Z,47.27
2023-04-09T15:56:05.420Z,48.78
2023-04-09T15:58:32.274Z,48.32
2023-04-09T16:00:58.892Z,47.43
2023-04-09T16:03:25.828Z,46.38
2023-04-09T16:05:52.290Z,48.10
2023-04-09T16:08:18.680Z,48.11
2023-04-09T16:10:45.323Z,47.17
2023-04-09T16:13:11.812Z,46.00
2023-04-09T16:15:38.379Z,47.87
2023-04-09T16:18:04.852Z,47.95
2023-04-09T16:20:31.677Z,47.62
2023-04-09T16:22:58.077Z,48.11
2023-04-09T16:25:24.566Z,48.82
2023-04-09T16:27:50.988Z,48.54
2023-04-09T16:30:17.425Z,48.12
2023-04-09T16:32:43.899Z,48.36
2023-04-09T16:35:10.412Z,48.89
2023-04-09T16:37:38.629Z,48.69
2023-04-09T16:40:05.707Z,47.94
2023-04-09T16:42:32.765Z,49.71
2023-04-09T16:44:59.159Z,49.75
2023-04-09T16:47:25.741Z,49.49
2023-04-09T16:49:52.207Z,50.53
2023-04-09T16:52:18.592Z,50.80
2023-04-09T16:54:44.965Z,51.70
2023-04-09T16:57:11.408Z,51.61
2023-04-09T16:59:38.709Z,51.53
2023-04-09T17:02:05.333Z,51.66
2023-04-09T17:04:34.351Z,52.49
2023-04-09T17:07:00.954Z,53.47
2023-04-09T17:09:28.305Z,54.78
2023-04-09T17:11:55.404Z,54.25
2023-04-09T17:14:21.813Z,54.33
2023-04-09T17:16:48.491Z,54.61
2023-04-09T17:19:15.120Z,54.93
2023-04-09T17:21:41.965Z,55.01
2023-04-09T17:24:08.364Z,55.17
2023-04-09T17:26:34.769Z,55.52
2023-04-09T17:29:01.886Z,55.78
2023-04-09T17:31:28.414Z,55.89
2023-04-09T17:33:55.178Z,56.24
2023-04-09T17:36:22.885Z,56.30
2023-04-09T17:38:51.981Z,57.08
2023-04-09T17:41:18.835Z,57.00
2023-04-09T17:43:46.067Z,57.72
2023-04-09T17:46:12.726Z,57.66
2023-04-09T17:48:39.358Z,57.35
2023-04-09T17:51:06.293Z,57.59
2023-04-09T17:53:32.702Z,57.74
2023-04-09T17:55:59.142Z,57.81
2023-04-09T17:58:26.060Z,57.77
2023-04-09T18:00:53.858Z,57.88
2023-04-09T18:03:21.029Z,58.23
2023-04-09T18:05:47.757Z,58.46
2023-04-09T18:08:14.130Z,58.63
2023-04-09T18:10:40.815Z,58.54
2023-04-09T18:13:07.240Z,58.99
2023-04-09T18:15:33.708Z,58.99
2023-04-09T18:18:00.451Z,59.04
2023-04-09T18:20:27.125Z,59.31
2023-04-09T18:22:53.705Z,59.79
2023-04-09T18:25:23.114Z,60.13
2023-04-09T18:27:49.731Z,60.50
2023-04-09T18:30:16.183Z,60.42
2023-04-09T18:32:43.339Z,60.80
2023-04-09T18:35:10.292Z,61.68
2023-04-09T18:37:36.714Z,62.18
2023-04-09T18:40:03.352Z,62.26
2023-04-09T18:42:29.818Z,62.60
2023-04-09T18:44:56.436Z,62.24
2023-04-09T18:47:23.092Z,62.45
2023-04-09T18:49:49.610Z,62.50
2023-04-09T18:52:16.117Z,62.80
2023-04-09T18:54:42.806Z,63.16
2023-04-09T18:57:09.233Z,63.41
2023-04-09T18:59:35.780Z,63.68
2023-04-09T19:02:05.907Z,64.07
2023-04-09T19:04:36.418Z,64.39
2023-04-09T19:07:03.285Z,64.55
2023-04-09T19:09:29.939Z,64.73
2023-04-09T19:11:57.660Z,65.19
2023-04-09T19:14:25.632Z,65.27
2023-04-09T19:16:52.105Z,65.44
2023-04-09T19:19:18.478Z,65.26
2023-04-09T19:21:45.000Z,65.13
2023-04-09T19:24:11.439Z,65.17
2023-04-09T19:26:38.908Z,65.87
2023-04-09T19:29:05.415Z,66.63
2023-04-09T19:31:32.193Z,66.67
2023-04-09T19:33:58.634Z,67.32
2023-04-09T19:36:25.079Z,67.50
2023-04-09T19:38:51.718Z,67.44
2023-04-09T19:41:18.588Z,67.38
2023-04-09T19:43:47.998Z,67.03
2023-04-09T19:46:14.398Z,66.79
2023-04-09T19:48:40.878Z,66.84
2023-04-09T19:51:07.443Z,66.80
2023-04-09T19:53:36.212Z,67.37
2023-04-09T19:56:03.065Z,67.00
2023-04-09T19:58:29.456Z,67.00
2023-04-09T20:00:56.166Z,66.97
2023-04-09T20:03:22.804Z,66.87
2023-04-09T20:05:49.506Z,66.84
2023-04-09T20:08:16.601Z,66.97
2023-04-09T20:10:46.254Z,67.35
2023-04-09T20:13:13.129Z,68.06
2023-04-09T20:15:39.566Z,68.15
2023-04-09T20:18:06.305Z,68.00
2023-04-09T20:20:33.032Z,68.20
2023-04-09T20:22:59.583Z,68.05
2023-04-09T20:25:26.113Z,68.10
2023-04-09T20:27:53.988Z,67.96
2023-04-09T20:30:20.645Z,67.86
2023-04-09T20:32:48.881Z,67.76
2023-04-09T20:35:15.860Z,67.81
2023-04-09T20:37:42.427Z,67.96
2023-04-09T20:40:09.157Z,68.20
2023-04-09T20:42:35.552Z,68.36
2023-04-09T20:45:02.355Z,68.54
2023-04-09T20:47:28.914Z,69.14
2023-04-09T20:49:59.662Z,69.23
2023-04-09T20:52:28.495Z,69.24
2023-04-09T20:54:56.048Z,69.32
2023-04-09T20:57:23.039Z,69.58
2023-04-09T20:59:50.009Z,69.49
2023-04-09T21:02:17.490Z,69.53
2023-04-09T21:04:44.188Z,69.76
2023-04-09T21:07:10.838Z,69.84
2023-04-09T21:09:38.153Z,69.85
2023-04-09T21:12:04.660Z,70.00
2023-04-09T21:14:31.521Z,69.93
2023-04-09T21:16:58.048Z,70.04
2023-04-09T21:19:24.529Z,69.98
2023-04-09T21:21:51.410Z,70.19
2023-04-09T21:24:18.319Z,70.05
2023-04-09T21:26:51.638Z,69.85
2023-04-09T21:29:20.316Z,71.24
2023-04-09T21:31:47.775Z,70.96
2023-04-09T21:34:14.172Z,70.88
2023-04-09T21:36:40.656Z,70.80
2023-04-09T21:39:07.114Z,71.05
2023-04-09T21:41:33.823Z,71.43
2023-04-09T21:44:07.780Z,71.54
2023-04-09T21:46:36.715Z,71.83
2023-04-09T21:49:03.821Z,72.51
2023-04-09T21:51:30.333Z,72.53
2023-04-09T21:54:11.065Z,72.64
2023-04-09T21:56:38.117Z,73.04
2023-04-09T21:59:05.344Z,73.91
2023-04-09T22:01:33.441Z,73.64
2023-04-09T22:04:01.866Z,73.31
2023-04-09T22:06:29.099Z,73.39
2023-04-09T22:08:57.339Z,73.83
2023-04-09T22:11:26.972Z,73.88
2023-04-09T22:13:53.904Z,74.14
2023-04-09T22:16:20.520Z,74.13
2023-04-09T22:18:47.351Z,74.42
2023-04-09T22:21:15.631Z,74.56
2023-04-09T22:23:42.480Z,74.62
2023-04-09T22:26:09.324Z,74.57
2023-04-09T22:28:35.692Z,74.68
2023-04-09T22:31:02.576Z,74.83
2023-04-09T22:33:29.171Z,74.63
2023-04-09T22:35:56.135Z,74.82
2023-04-09T22:38:22.815Z,74.82
2023-04-09T22:40:49.292Z,74.98
2023-04-09T22:43:16.986Z,75.26
2023-04-09T22:45:50.977Z,75.51
2023-04-09T22:48:18.112Z,75.64
2023-04-09T22:50:44.545Z,75.97
2023-04-09T22:53:11.231Z,75.92
2023-04-09T22:55:38.226Z,76.42
2023-04-09T22:58:04.698Z,76.25
2023-04-09T23:00:31.114Z,76.26
2023-04-09T23:02:57.685Z,76.09
2023-04-09T23:05:24.118Z,75.81
2023-04-09T23:07:51.311Z,76.07
2023-04-09T23:10:18.367Z,76.00
2023-04-09T23:12:44.837Z,76.14
2023-04-09T23:15:11.541Z,75.94
2023-04-09T23:17:37.980Z,76.32
2023-04-09T23:20:06.827Z,76.78
2023-04-09T23:22:34.927Z,77.27
2023-04-09T23:25:01.354Z,77.46
2023-04-09T23:27:28.808Z,77.37
2023-04-09T23:29:56.324Z,77.54
2023-04-09T23:32:22.918Z,77.82
2023-04-09T23:34:49.559Z,77.87
2023-04-09T23:37:16.362Z,78.10
2023-04-09T23:39:43.427Z,77.80
2023-04-09T23:42:09.817Z,78.06
2023-04-09T23:44:36.320Z,77.83
2023-04-09T23:47:05.708Z,78.00
2023-04-09T23:49:32.254Z,78.07
2023-04-09T23:51:58.731Z,78.13
2023-04-09T23:54:25.265Z,78.13
2023-04-09T23:56:51.655Z,78.43
2023-04-09T23:59:18.060Z,78.11
